Terminal Aerodrome Forecast
Issued by NWS Twin Cities, MN

Home | Current Version | Previous Version | Graphics & Text | Print | Product List | Glossary Off
Versions: 1 2 3 4 5 6 7 8 9 10 11 12 13 14 15 16 17 18 19 20 21 22

000
FTUS43 KMPX 200520
TAFEAU
TAF
KEAU 200520Z 2006/2106 VRB03KT 6SM -SHRA BR SCT015 OVC040
     FM200900 15003KT 4SM -SHRA BR OVC015
     FM201200 13003KT 2SM -DZ BR OVC008
     FM201600 11005KT 1SM -DZ BR OVC003
     FM202000 12005KT 3SM BR OVC005=

USA.gov is the U.S. government's official web portal to all federal, state and local government web resources and services.